Time;durP1;ratioP1;P1;durP2;ratioP2;P2;SDS_P1;SDS_P2;PMS_P1;PMS_P2;Temp;Humidity;BMP_temperature;BMP_pressure;BME280_temperature;BME280_humidity;BME280_pressure;Samples;Min_cycle;Max_cycle;Signal;HPM_P1;HPM_P2
2022/12/23 00:00:53;;;;;;;291.25;49.65;;;;;;;;;;5039433;28;20474;-70
2022/12/23 00:03:19;;;;;;;375.08;50.03;;;;;;;;;;5035891;28;20136;-70
2022/12/23 00:05:44;;;;;;;284.05;48.83;;;;;;;;;;5039054;28;20139;-70
2022/12/23 00:08:10;;;;;;;237.73;47.67;;;;;;;;;;5034381;28;20048;-70
2022/12/23 00:10:40;;;;;;;177.57;44.03;;;;;;;;;;5038804;28;20041;-70
2022/12/23 00:15:59;;;;;;;585.75;55.22;;;;;;;;;;5034669;28;20080;-70
2022/12/23 00:18:26;;;;;;;339.67;48.42;;;;;;;;;;5036000;28;20025;-71
2022/12/23 00:20:56;;;;;;;406.38;48.00;;;;;;;;;;5036014;28;20607;-70
2022/12/23 00:23:22;;;;;;;581.20;55.10;;;;;;;;;;5035119;28;20049;-70
2022/12/23 00:25:48;;;;;;;370.45;48.15;;;;;;;;;;5039742;28;20621;-70
2022/12/23 00:28:19;;;;;;;350.48;46.08;;;;;;;;;;5036961;28;20040;-72
2022/12/23 00:30:52;;;;;;;259.45;42.85;;;;;;;;;;5037365;28;20088;-70
2022/12/23 00:33:20;;;;;;;306.85;45.03;;;;;;;;;;5035122;28;20516;-70
2022/12/23 00:35:46;;;;;;;237.57;42.27;;;;;;;;;;5037834;28;20498;-70
2022/12/23 00:38:12;;;;;;;302.77;43.80;;;;;;;;;;5019397;28;20055;-72
2022/12/23 00:43:23;;;;;;;546.20;52.33;;;;;;;;;;5038269;28;20045;-72
2022/12/23 00:45:49;;;;;;;626.45;54.78;;;;;;;;;;5036902;28;20593;-70
2022/12/23 00:51:00;;;;;;;410.85;47.78;;;;;;;;;;5026521;28;20422;-71
2022/12/23 00:53:26;;;;;;;279.25;43.42;;;;;;;;;;5035366;28;20056;-70
2022/12/23 00:55:52;;;;;;;403.60;46.60;;;;;;;;;;5040482;28;20041;-70
2022/12/23 00:58:19;;;;;;;342.75;47.47;;;;;;;;;;5036207;28;20443;-71
2022/12/23 01:06:16;;;;;;;528.35;52.80;;;;;;;;;;5036532;28;20040;-72
2022/12/23 01:08:42;;;;;;;682.10;57.00;;;;;;;;;;5018602;28;20041;-71
2022/12/23 01:11:10;;;;;;;450.83;52.25;;;;;;;;;;5031123;28;20749;-70
2022/12/23 01:13:36;;;;;;;264.37;45.77;;;;;;;;;;5037294;28;20048;-70
2022/12/23 01:16:09;;;;;;;346.05;48.13;;;;;;;;;;5034582;28;20068;-70
2022/12/23 01:18:36;;;;;;;760.25;61.75;;;;;;;;;;5036857;28;20072;-70
2022/12/23 01:21:06;;;;;;;524.78;55.70;;;;;;;;;;5033508;28;20529;-71
2022/12/23 01:23:33;;;;;;;572.22;56.63;;;;;;;;;;5033727;28;20076;-70
2022/12/23 01:26:00;;;;;;;531.17;55.80;;;;;;;;;;5035224;28;20508;-72
2022/12/23 01:28:27;;;;;;;615.78;58.08;;;;;;;;;;5037156;28;20045;-70
2022/12/23 01:30:53;;;;;;;490.05;54.92;;;;;;;;;;5036210;28;20503;-70
2022/12/23 01:33:19;;;;;;;1519.22;200.60;;;;;;;;;;5031930;28;20048;-71
2022/12/23 01:35:45;;;;;;;429.70;50.72;;;;;;;;;;5035281;28;20053;-70
2022/12/23 01:38:11;;;;;;;499.20;53.22;;;;;;;;;;5035691;28;20098;-72
2022/12/23 01:40:39;;;;;;;553.60;55.83;;;;;;;;;;5036317;28;20095;-71
2022/12/23 01:43:11;;;;;;;455.52;52.40;;;;;;;;;;5031637;28;20076;-71
2022/12/23 01:45:37;;;;;;;500.35;52.80;;;;;;;;;;5036488;28;20065;-71
2022/12/23 01:48:03;;;;;;;455.23;51.00;;;;;;;;;;5031505;28;20167;-71
2022/12/23 01:50:31;;;;;;;422.35;50.42;;;;;;;;;;5034311;28;20033;-70
2022/12/23 01:53:26;;;;;;;420.55;52.17;;;;;;;;;;5034887;28;20033;-71
2022/12/23 01:56:06;;;;;;;338.85;46.72;;;;;;;;;;5027144;28;20088;-71
2022/12/23 01:58:40;;;;;;;225.07;41.10;;;;;;;;;;5034341;28;20056;-71
2022/12/23 02:03:53;;;;;;;363.13;43.65;;;;;;;;;;5033449;28;20051;-72
2022/12/23 02:09:16;;;;;;;356.58;42.22;;;;;;;;;;5027373;28;20335;-70
2022/12/23 02:12:01;;;;;;;391.40;44.03;;;;;;;;;;5031086;28;20154;-72
2022/12/23 02:17:21;;;;;;;266.38;42.45;;;;;;;;;;5035743;28;20531;-71
2022/12/23 02:19:55;;;;;;;248.10;42.25;;;;;;;;;;5034071;28;20595;-71
2022/12/23 02:22:49;;;;;;;339.60;44.35;;;;;;;;;;5027441;28;20604;-70
2022/12/23 02:25:27;;;;;;;408.08;46.38;;;;;;;;;;5027573;28;20534;-70
2022/12/23 02:28:18;;;;;;;272.95;43.88;;;;;;;;;;5034294;28;20733;-71
2022/12/23 02:30:46;;;;;;;257.73;42.97;;;;;;;;;;5032054;28;20060;-71
2022/12/23 02:33:18;;;;;;;404.15;46.60;;;;;;;;;;5031171;28;20809;-71
2022/12/23 02:35:59;;;;;;;415.25;48.38;;;;;;;;;;5034628;28;20049;-72
2022/12/23 02:38:31;;;;;;;309.60;44.47;;;;;;;;;;5031150;28;20033;-71
2022/12/23 02:41:06;;;;;;;371.13;45.80;;;;;;;;;;5037191;28;20573;-71
2022/12/23 02:43:47;;;;;;;306.80;42.10;;;;;;;;;;5032104;28;20419;-71
2022/12/23 02:46:26;;;;;;;219.43;37.70;;;;;;;;;;5034928;28;20653;-71
2022/12/23 02:49:03;;;;;;;231.85;37.53;;;;;;;;;;5028981;28;20915;-70
2022/12/23 02:51:32;;;;;;;218.50;36.72;;;;;;;;;;5029670;28;20589;-70
2022/12/23 02:54:00;;;;;;;240.15;38.67;;;;;;;;;;5031998;28;20080;-71
2022/12/23 02:56:26;;;;;;;263.13;39.50;;;;;;;;;;5029282;28;20048;-70
2022/12/23 02:59:07;;;;;;;260.05;40.30;;;;;;;;;;5019870;28;20654;-71
2022/12/23 03:01:34;;;;;;;266.63;42.65;;;;;;;;;;5036134;28;20488;-71
2022/12/23 03:04:00;;;;;;;260.33;39.67;;;;;;;;;;5037662;28;20412;-72
2022/12/23 03:06:32;;;;;;;241.18;40.22;;;;;;;;;;5037811;28;20040;-71
2022/12/23 03:08:59;;;;;;;246.68;38.92;;;;;;;;;;5033049;28;20056;-70
2022/12/23 03:11:38;;;;;;;267.92;40.95;;;;;;;;;;5011601;28;20064;-72
2022/12/23 03:14:23;;;;;;;294.08;40.30;;;;;;;;;;5033519;28;20056;-72
2022/12/23 03:17:08;;;;;;;252.70;40.30;;;;;;;;;;5035797;28;20045;-71
2022/12/23 03:19:49;;;;;;;235.73;38.13;;;;;;;;;;5038751;28;20067;-71
2022/12/23 03:22:34;;;;;;;293.88;40.80;;;;;;;;;;5012847;28;20511;-72
2022/12/23 03:25:08;;;;;;;301.20;41.03;;;;;;;;;;5042347;28;20053;-71
2022/12/23 03:27:37;;;;;;;242.52;38.72;;;;;;;;;;5037452;28;20136;-72
2022/12/23 03:30:11;;;;;;;207.40;37.75;;;;;;;;;;5035519;28;20046;-72
2022/12/23 03:32:53;;;;;;;281.75;38.88;;;;;;;;;;5042545;28;20037;-72
2022/12/23 03:35:23;;;;;;;260.25;40.10;;;;;;;;;;5031195;28;20130;-72
2022/12/23 03:37:50;;;;;;;270.55;38.05;;;;;;;;;;5033991;28;20056;-71
2022/12/23 03:40:19;;;;;;;182.80;36.70;;;;;;;;;;5046588;28;20048;-72
2022/12/23 03:42:49;;;;;;;334.98;40.83;;;;;;;;;;5047500;28;20036;-72
2022/12/23 03:45:16;;;;;;;287.63;39.83;;;;;;;;;;5033918;28;20048;-72
2022/12/23 03:47:52;;;;;;;237.05;36.22;;;;;;;;;;5039334;28;20053;-71
2022/12/23 03:50:19;;;;;;;285.17;39.67;;;;;;;;;;5033348;28;20048;-72
2022/12/23 03:53:08;;;;;;;264.02;40.47;;;;;;;;;;5042619;28;20780;-72
2022/12/23 03:55:39;;;;;;;257.50;38.33;;;;;;;;;;5045643;28;20064;-72
2022/12/23 03:58:24;;;;;;;261.85;37.83;;;;;;;;;;5029241;28;20045;-69
2022/12/23 04:00:54;;;;;;;270.27;39.25;;;;;;;;;;5040331;28;20572;-70
2022/12/23 04:03:35;;;;;;;233.65;37.97;;;;;;;;;;5043290;28;20370;-71
2022/12/23 04:06:01;;;;;;;166.65;34.53;;;;;;;;;;5043521;28;20076;-71
2022/12/23 04:08:37;;;;;;;157.77;33.53;;;;;;;;;;5033357;28;20049;-72
2022/12/23 04:11:04;;;;;;;176.57;35.80;;;;;;;;;;5047358;28;20052;-71
2022/12/23 04:13:31;;;;;;;220.75;36.72;;;;;;;;;;5032492;28;20747;-72
2022/12/23 04:15:57;;;;;;;191.35;36.60;;;;;;;;;;5042681;28;20045;-71
2022/12/23 04:18:23;;;;;;;182.68;37.42;;;;;;;;;;5036599;28;20122;-71
2022/12/23 04:20:49;;;;;;;205.88;37.50;;;;;;;;;;5034898;28;20473;-72
2022/12/23 04:23:15;;;;;;;234.77;37.90;;;;;;;;;;5039910;28;20171;-72
2022/12/23 04:25:41;;;;;;;185.82;36.25;;;;;;;;;;5017584;28;20045;-72
2022/12/23 04:28:07;;;;;;;173.63;36.72;;;;;;;;;;5039072;28;20429;-71
2022/12/23 04:30:36;;;;;;;222.48;40.20;;;;;;;;;;5030595;28;20413;-70
2022/12/23 04:33:02;;;;;;;206.63;39.72;;;;;;;;;;5043100;28;20051;-71
2022/12/23 04:35:29;;;;;;;209.50;39.13;;;;;;;;;;5032848;28;20041;-72
2022/12/23 04:37:55;;;;;;;198.63;40.08;;;;;;;;;;5045021;28;20496;-70
2022/12/23 04:40:21;;;;;;;207.93;38.78;;;;;;;;;;5035541;28;20199;-71
2022/12/23 04:42:47;;;;;;;233.65;38.22;;;;;;;;;;5043622;28;20416;-72
2022/12/23 04:45:13;;;;;;;257.60;39.33;;;;;;;;;;5033481;28;20059;-71
2022/12/23 04:47:39;;;;;;;194.77;35.80;;;;;;;;;;5036065;28;20041;-71
2022/12/23 04:50:06;;;;;;;216.70;38.05;;;;;;;;;;5041085;28;20118;-71
2022/12/23 04:52:32;;;;;;;232.85;36.33;;;;;;;;;;5044341;28;20128;-72
2022/12/23 04:54:58;;;;;;;168.10;34.67;;;;;;;;;;5042862;28;20041;-72
2022/12/23 04:57:24;;;;;;;176.50;33.50;;;;;;;;;;5040573;28;20053;-72
2022/12/23 04:59:49;;;;;;;172.32;33.13;;;;;;;;;;5044970;28;20045;-71
2022/12/23 05:02:15;;;;;;;152.10;32.28;;;;;;;;;;5042978;28;20087;-72
2022/12/23 05:04:41;;;;;;;216.15;34.72;;;;;;;;;;5044715;28;20444;-72
2022/12/23 05:07:07;;;;;;;187.27;32.28;;;;;;;;;;5043296;28;20056;-71
2022/12/23 05:09:33;;;;;;;177.13;32.67;;;;;;;;;;5041682;28;20533;-71
2022/12/23 05:11:59;;;;;;;217.93;33.83;;;;;;;;;;5046519;28;20037;-72
2022/12/23 05:14:25;;;;;;;206.63;31.67;;;;;;;;;;5043462;28;20091;-71
2022/12/23 05:16:51;;;;;;;242.85;32.92;;;;;;;;;;5033050;28;20430;-72
2022/12/23 05:19:17;;;;;;;177.85;30.85;;;;;;;;;;5043326;28;20088;-72
2022/12/23 05:21:43;;;;;;;228.13;32.33;;;;;;;;;;5045825;28;20052;-72
2022/12/23 05:24:09;;;;;;;197.15;30.70;;;;;;;;;;5039867;28;20114;-72
2022/12/23 05:26:35;;;;;;;157.93;31.58;;;;;;;;;;5040379;28;20494;-72
2022/12/23 05:29:01;;;;;;;196.18;31.13;;;;;;;;;;5028718;28;20052;-71
2022/12/23 05:31:27;;;;;;;405.85;39.65;;;;;;;;;;5034679;28;20123;-71
2022/12/23 05:33:53;;;;;;;196.00;32.20;;;;;;;;;;5044295;28;20101;-72
2022/12/23 05:36:19;;;;;;;150.82;31.20;;;;;;;;;;5036696;28;20029;-71
2022/12/23 05:38:45;;;;;;;162.00;30.33;;;;;;;;;;5043455;28;20052;-71
2022/12/23 05:41:11;;;;;;;195.02;31.90;;;;;;;;;;5036547;28;20053;-72
2022/12/23 05:43:37;;;;;;;305.08;37.03;;;;;;;;;;5035660;28;20052;-71
2022/12/23 05:46:03;;;;;;;400.15;39.75;;;;;;;;;;5033813;28;20045;-71
2022/12/23 05:48:29;;;;;;;502.40;43.10;;;;;;;;;;5027957;28;20063;-72
2022/12/23 05:50:55;;;;;;;525.53;44.53;;;;;;;;;;5032790;28;20400;-71
2022/12/23 05:53:22;;;;;;;519.50;44.00;;;;;;;;;;5042762;28;20590;-72
2022/12/23 05:55:48;;;;;;;1321.63;95.45;;;;;;;;;;5041586;28;20057;-72
2022/12/23 05:58:14;;;;;;;596.00;44.67;;;;;;;;;;5032918;28;20045;-72
2022/12/23 06:00:40;;;;;;;954.78;55.45;;;;;;;;;;5043587;28;20118;-70
2022/12/23 06:03:06;;;;;;;796.13;49.67;;;;;;;;;;5034653;28;20439;-72
2022/12/23 06:05:35;;;;;;;1999.90;104.55;;;;;;;;;;5039562;28;20053;-72
2022/12/23 06:08:01;;;;;;;711.88;47.00;;;;;;;;;;5043483;28;20053;-72
2022/12/23 06:10:27;;;;;;;563.15;43.08;;;;;;;;;;5033211;28;20064;-71
2022/12/23 06:12:53;;;;;;;792.50;46.83;;;;;;;;;;5035958;28;20412;-71
2022/12/23 06:15:19;;;;;;;460.98;38.42;;;;;;;;;;5042170;28;20081;-71
2022/12/23 06:17:45;;;;;;;436.58;37.00;;;;;;;;;;5043780;28;20573;-71
2022/12/23 06:20:11;;;;;;;453.80;36.67;;;;;;;;;;5043675;28;20045;-71
2022/12/23 06:22:37;;;;;;;587.05;42.25;;;;;;;;;;5037798;28;20098;-71
2022/12/23 06:25:03;;;;;;;512.45;44.10;;;;;;;;;;5031001;28;20476;-72
2022/12/23 06:27:29;;;;;;;494.50;41.75;;;;;;;;;;5042439;28;20055;-71
2022/12/23 06:29:55;;;;;;;516.33;39.08;;;;;;;;;;5044031;28;20044;-71
2022/12/23 06:32:21;;;;;;;662.78;43.78;;;;;;;;;;5043615;28;20048;-72
2022/12/23 06:34:52;;;;;;;486.83;38.53;;;;;;;;;;5041378;28;20393;-71
2022/12/23 06:37:18;;;;;;;368.25;35.95;;;;;;;;;;5026905;28;20183;-72
2022/12/23 06:39:44;;;;;;;277.40;31.35;;;;;;;;;;5037231;28;20052;-72
2022/12/23 06:42:10;;;;;;;360.55;32.50;;;;;;;;;;5042889;28;20394;-72
2022/12/23 06:44:35;;;;;;;439.23;36.88;;;;;;;;;;5043910;28;20084;-72
2022/12/23 06:47:01;;;;;;;343.33;30.63;;;;;;;;;;5042668;28;20400;-72
2022/12/23 06:49:27;;;;;;;644.15;42.58;;;;;;;;;;5014515;28;20049;-72
2022/12/23 06:51:53;;;;;;;378.27;33.13;;;;;;;;;;5037563;28;20623;-71
2022/12/23 06:54:20;;;;;;;429.25;33.38;;;;;;;;;;5034643;28;20492;-72
2022/12/23 06:56:45;;;;;;;698.67;43.90;;;;;;;;;;5049329;28;20049;-71
2022/12/23 06:59:11;;;;;;;394.83;35.47;;;;;;;;;;5047272;28;20095;-72
2022/12/23 07:01:39;;;;;;;378.85;32.00;;;;;;;;;;5043135;28;20044;-72
2022/12/23 07:04:05;;;;;;;459.48;34.50;;;;;;;;;;5045920;28;20117;-71
2022/12/23 07:06:31;;;;;;;524.30;36.47;;;;;;;;;;5044105;28;20045;-71
2022/12/23 07:08:57;;;;;;;455.02;33.25;;;;;;;;;;5045579;28;20045;-71
2022/12/23 07:11:23;;;;;;;410.42;32.88;;;;;;;;;;5034080;28;20536;-71
2022/12/23 07:13:49;;;;;;;559.38;37.60;;;;;;;;;;5037481;28;20139;-71
2022/12/23 07:16:15;;;;;;;779.80;52.10;;;;;;;;;;5043438;28;20050;-69
2022/12/23 07:18:44;;;;;;;445.77;33.33;;;;;;;;;;5029318;28;20057;-72
2022/12/23 07:21:14;;;;;;;940.95;52.92;;;;;;;;;;5021949;28;20049;-72
2022/12/23 07:23:40;;;;;;;610.65;38.72;;;;;;;;;;5038080;28;20053;-73
2022/12/23 07:26:06;;;;;;;595.03;40.08;;;;;;;;;;5039490;28;20045;-72
2022/12/23 07:28:32;;;;;;;637.70;44.65;;;;;;;;;;5042540;28;20396;-71
2022/12/23 07:30:58;;;;;;;588.70;38.55;;;;;;;;;;5035606;28;20441;-73
2022/12/23 07:33:24;;;;;;;593.95;35.97;;;;;;;;;;5043990;28;20059;-72
2022/12/23 07:36:11;;;;;;;593.72;38.47;;;;;;;;;;5021172;28;20037;-73
2022/12/23 07:38:50;;;;;;;571.00;39.72;;;;;;;;;;5041555;28;20041;-73
2022/12/23 07:41:16;;;;;;;814.33;46.72;;;;;;;;;;5041888;28;20052;-73
2022/12/23 07:43:42;;;;;;;725.15;39.53;;;;;;;;;;5042170;28;20041;-73
2022/12/23 07:46:11;;;;;;;718.20;40.10;;;;;;;;;;5039573;28;20056;-73
2022/12/23 07:49:01;;;;;;;663.83;40.53;;;;;;;;;;5021447;28;20512;-70
2022/12/23 07:51:55;;;;;;;625.55;38.03;;;;;;;;;;5037189;28;20055;-71
2022/12/23 07:54:39;;;;;;;679.88;39.60;;;;;;;;;;5050698;28;20087;-71
2022/12/23 07:57:08;;;;;;;617.35;40.53;;;;;;;;;;5009290;28;20708;-70
2022/12/23 07:59:34;;;;;;;556.47;36.13;;;;;;;;;;5021251;28;20053;-71
2022/12/23 08:02:00;;;;;;;581.85;37.58;;;;;;;;;;5041591;28;20381;-70
2022/12/23 08:04:26;;;;;;;624.88;37.70;;;;;;;;;;5035018;28;20114;-71
2022/12/23 08:06:52;;;;;;;636.38;37.80;;;;;;;;;;5036201;28;20075;-71
2022/12/23 08:09:18;;;;;;;612.10;37.88;;;;;;;;;;5033828;28;20061;-70
2022/12/23 08:11:45;;;;;;;660.88;38.53;;;;;;;;;;5031857;28;20045;-72
2022/12/23 08:14:11;;;;;;;661.55;36.60;;;;;;;;;;5043105;28;20467;-72
2022/12/23 08:16:37;;;;;;;545.30;35.38;;;;;;;;;;5043532;28;20147;-72
2022/12/23 08:19:03;;;;;;;638.10;37.53;;;;;;;;;;5043803;28;20049;-71
2022/12/23 08:21:29;;;;;;;522.42;34.22;;;;;;;;;;5037315;28;20883;-71
2022/12/23 08:23:55;;;;;;;696.03;40.17;;;;;;;;;;5039571;28;20056;-72
2022/12/23 08:26:23;;;;;;;597.83;36.60;;;;;;;;;;5022739;28;20041;-72
2022/12/23 08:28:53;;;;;;;598.40;36.85;;;;;;;;;;5035090;28;20052;-72
2022/12/23 08:31:24;;;;;;;468.33;32.75;;;;;;;;;;5034005;28;20053;-72
2022/12/23 08:33:51;;;;;;;580.92;38.28;;;;;;;;;;5034889;28;20048;-72
2022/12/23 08:36:20;;;;;;;391.55;31.42;;;;;;;;;;5033566;28;20045;-72
2022/12/23 08:38:46;;;;;;;510.60;34.55;;;;;;;;;;5035105;28;20504;-71
2022/12/23 08:41:15;;;;;;;370.63;29.33;;;;;;;;;;5030102;28;20045;-72
2022/12/23 08:43:41;;;;;;;;;;;;;;;;;;5030420;28;20064;-72
2022/12/23 08:46:07;;;;;;;691.50;38.42;;;;;;;;;;5035836;28;20468;-72
2022/12/23 08:48:35;;;;;;;445.77;29.92;;;;;;;;;;5030562;28;20076;-72
2022/12/23 08:51:05;;;;;;;329.58;28.80;;;;;;;;;;5035279;28;20046;-72
2022/12/23 08:53:33;;;;;;;363.33;29.00;;;;;;;;;;5028421;28;20121;-72
2022/12/23 08:56:07;;;;;;;310.15;25.20;;;;;;;;;;5032555;28;20045;-72
2022/12/23 08:58:37;;;;;;;197.32;24.23;;;;;;;;;;5033391;28;20045;-72
2022/12/23 09:01:04;;;;;;;136.23;21.38;;;;;;;;;;5035801;28;20051;-72
2022/12/23 09:03:30;;;;;;;148.63;22.48;;;;;;;;;;5033213;28;20048;-72
2022/12/23 09:05:56;;;;;;;110.97;22.90;;;;;;;;;;5034536;28;20056;-72
2022/12/23 09:08:22;;;;;;;108.00;21.65;;;;;;;;;;5033483;28;20488;-72
2022/12/23 09:10:48;;;;;;;122.15;22.13;;;;;;;;;;5029887;28;20071;-72
2022/12/23 09:13:14;;;;;;;98.80;20.83;;;;;;;;;;5054894;28;20056;-72
2022/12/23 09:15:40;;;;;;;117.82;20.92;;;;;;;;;;5050568;28;20099;-72
2022/12/23 09:18:06;;;;;;;84.38;19.38;;;;;;;;;;5054951;28;20128;-72
2022/12/23 09:20:32;;;;;;;110.03;20.38;;;;;;;;;;5053492;28;20059;-72
2022/12/23 09:22:59;;;;;;;123.07;18.98;;;;;;;;;;5052675;28;20048;-72
2022/12/23 09:25:26;;;;;;;99.50;18.35;;;;;;;;;;5049974;28;20067;-71
2022/12/23 09:27:51;;;;;;;118.85;18.85;;;;;;;;;;5053941;28;20388;-72
2022/12/23 09:30:17;;;;;;;83.88;18.25;;;;;;;;;;5049680;28;20044;-72
2022/12/23 09:32:43;;;;;;;77.20;17.98;;;;;;;;;;5051863;28;20052;-70
2022/12/23 09:35:09;;;;;;;95.28;18.75;;;;;;;;;;5054005;28;20475;-70
2022/12/23 09:37:36;;;;;;;121.18;20.00;;;;;;;;;;5050467;28;20040;-70
2022/12/23 09:40:02;;;;;;;89.22;18.88;;;;;;;;;;5049928;28;20064;-73
2022/12/23 09:42:51;;;;;;;70.03;17.80;;;;;;;;;;5050484;28;20063;-72
2022/12/23 09:45:31;;;;;;;62.38;16.90;;;;;;;;;;5025915;28;20060;-73
2022/12/23 09:47:57;;;;;;;49.30;15.75;;;;;;;;;;5051591;28;20076;-73
2022/12/23 09:50:26;;;;;;;63.30;16.80;;;;;;;;;;5057389;28;20562;-73
2022/12/23 09:53:01;;;;;;;54.97;16.27;;;;;;;;;;5035387;28;20076;-73
2022/12/23 09:55:38;;;;;;;57.85;17.13;;;;;;;;;;5043352;28;20499;-73
2022/12/23 09:58:08;;;;;;;63.85;16.88;;;;;;;;;;5048675;28;20128;-73
2022/12/23 10:00:39;;;;;;;63.15;18.30;;;;;;;;;;5052120;28;20135;-72
2022/12/23 10:03:15;;;;;;;59.53;17.90;;;;;;;;;;5048703;28;20080;-73
2022/12/23 10:05:59;;;;;;;47.60;16.30;;;;;;;;;;5052856;28;20412;-72
2022/12/23 10:08:36;;;;;;;53.28;16.73;;;;;;;;;;5051643;28;20041;-72
2022/12/23 10:11:11;;;;;;;49.90;17.30;;;;;;;;;;5032504;28;20041;-72
2022/12/23 10:13:39;;;;;;;39.40;15.75;;;;;;;;;;5034517;28;20056;-73
2022/12/23 10:16:12;;;;;;;79.75;17.75;;;;;;;;;;5034880;28;20128;-73
2022/12/23 10:18:56;;;;;;;36.22;14.98;;;;;;;;;;5034736;28;20037;-72
2022/12/23 10:21:30;;;;;;;35.08;14.88;;;;;;;;;;5027136;28;20068;-73
2022/12/23 10:23:56;;;;;;;40.50;15.85;;;;;;;;;;5030963;28;20073;-73
2022/12/23 10:26:34;;;;;;;45.92;15.90;;;;;;;;;;5032041;28;20060;-73
2022/12/23 10:29:07;;;;;;;38.80;15.82;;;;;;;;;;5017691;28;20045;-72
2022/12/23 10:31:50;;;;;;;38.03;15.73;;;;;;;;;;5033687;28;20045;-72
2022/12/23 10:34:19;;;;;;;37.55;15.02;;;;;;;;;;5033705;28;20044;-73
2022/12/23 10:36:50;;;;;;;40.05;15.45;;;;;;;;;;5031684;28;20561;-73
2022/12/23 10:39:22;;;;;;;37.05;15.38;;;;;;;;;;5037116;28;20095;-73
2022/12/23 10:41:57;;;;;;;41.47;15.48;;;;;;;;;;5036669;28;20048;-72
2022/12/23 10:44:29;;;;;;;37.75;15.70;;;;;;;;;;5034114;28;20524;-71
2022/12/23 10:47:03;;;;;;;34.53;14.52;;;;;;;;;;5036933;28;20037;-72
2022/12/23 10:49:35;;;;;;;41.25;16.15;;;;;;;;;;5036635;28;20061;-71
2022/12/23 10:52:05;;;;;;;44.97;16.70;;;;;;;;;;5034454;28;20044;-72
2022/12/23 10:54:35;;;;;;;48.78;16.20;;;;;;;;;;5034788;28;20123;-71
2022/12/23 10:57:02;;;;;;;38.97;15.05;;;;;;;;;;5018505;28;20040;-73
2022/12/23 10:59:30;;;;;;;38.97;15.38;;;;;;;;;;5034458;28;20052;-72
2022/12/23 11:02:25;;;;;;;32.65;14.90;;;;;;;;;;5032345;28;20140;-73
2022/12/23 11:04:51;;;;;;;44.55;16.08;;;;;;;;;;5024613;28;20130;-73
2022/12/23 11:07:20;;;;;;;37.67;15.45;;;;;;;;;;5037866;28;20132;-74
2022/12/23 11:10:13;;;;;;;43.55;17.05;;;;;;;;;;5037617;28;20193;-73
2022/12/23 11:12:43;;;;;;;45.60;16.27;;;;;;;;;;5037199;28;20041;-73
2022/12/23 11:15:24;;;;;;;44.50;16.50;;;;;;;;;;5033869;28;20037;-73
2022/12/23 11:18:09;;;;;;;31.95;14.52;;;;;;;;;;5033831;28;20118;-72
2022/12/23 11:20:36;;;;;;;35.70;14.25;;;;;;;;;;5037386;28;20769;-74
2022/12/23 11:23:03;;;;;;;36.95;14.90;;;;;;;;;;5037774;28;20087;-72
2022/12/23 11:25:39;;;;;;;38.58;15.38;;;;;;;;;;5038574;28;20067;-72
2022/12/23 11:28:15;;;;;;;37.35;15.75;;;;;;;;;;5021769;28;20860;-73
2022/12/23 11:30:41;;;;;;;39.53;15.82;;;;;;;;;;5031488;28;20052;-72
2022/12/23 11:33:18;;;;;;;33.63;14.00;;;;;;;;;;5039305;28;20045;-73
2022/12/23 11:35:44;;;;;;;48.97;15.77;;;;;;;;;;5038684;28;20147;-74
2022/12/23 11:38:12;;;;;;;38.38;16.15;;;;;;;;;;5041063;28;20132;-73
2022/12/23 11:40:38;;;;;;;37.80;14.38;;;;;;;;;;5039129;28;20216;-73
2022/12/23 11:43:11;;;;;;;42.55;15.60;;;;;;;;;;5037325;28;20129;-73
2022/12/23 11:45:37;;;;;;;37.85;14.15;;;;;;;;;;5042018;28;20041;-73
2022/12/23 11:48:04;;;;;;;36.20;14.85;;;;;;;;;;5056957;28;20403;-74
2022/12/23 11:50:34;;;;;;;41.85;14.27;;;;;;;;;;5040504;28;20036;-74
2022/12/23 11:53:09;;;;;;;39.00;15.45;;;;;;;;;;5038517;28;20135;-73
2022/12/23 11:55:36;;;;;;;36.65;15.45;;;;;;;;;;5038404;28;20666;-73
2022/12/23 11:58:02;;;;;;;35.60;14.98;;;;;;;;;;5041852;28;20040;-73
2022/12/23 12:00:42;;;;;;;37.22;14.63;;;;;;;;;;5038082;28;20053;-73
2022/12/23 12:03:15;;;;;;;37.97;15.48;;;;;;;;;;5038905;28;20132;-74
2022/12/23 12:05:46;;;;;;;36.53;14.48;;;;;;;;;;5039318;28;20662;-74
2022/12/23 12:08:14;;;;;;;33.55;14.48;;;;;;;;;;5036956;28;20064;-73
2022/12/23 12:10:41;;;;;;;41.72;14.98;;;;;;;;;;5045487;28;20049;-72
2022/12/23 12:13:23;;;;;;;34.65;13.90;;;;;;;;;;5035624;28;20064;-74
2022/12/23 12:16:00;;;;;;;35.45;14.38;;;;;;;;;;5034628;28;20439;-74
2022/12/23 12:18:27;;;;;;;41.95;15.13;;;;;;;;;;5038370;28;20049;-74
2022/12/23 12:20:56;;;;;;;44.35;14.90;;;;;;;;;;5039319;28;20110;-73
2022/12/23 12:23:22;;;;;;;;;;;;;;;;;;5038747;28;20072;-73
2022/12/23 12:25:54;;;;;;;43.92;15.43;;;;;;;;;;5024838;28;19975;-73
2022/12/23 12:28:23;;;;;;;39.30;15.15;;;;;;;;;;5038290;28;20231;-72
2022/12/23 12:30:53;;;;;;;38.97;14.75;;;;;;;;;;5039158;28;20438;-73
2022/12/23 12:33:23;;;;;;;46.03;15.90;;;;;;;;;;5038885;28;20095;-72
2022/12/23 12:35:53;;;;;;;48.03;16.25;;;;;;;;;;5046367;28;20049;-72
2022/12/23 12:38:32;;;;;;;42.03;14.95;;;;;;;;;;5039631;28;20044;-75
2022/12/23 12:41:17;;;;;;;39.13;14.18;;;;;;;;;;5033445;28;20045;-73
2022/12/23 12:43:50;;;;;;;37.05;13.90;;;;;;;;;;5037241;28;20046;-74
2022/12/23 12:46:25;;;;;;;38.22;14.52;;;;;;;;;;5036605;28;20412;-73
2022/12/23 12:49:10;;;;;;;32.30;14.23;;;;;;;;;;5035301;28;20553;-73
2022/12/23 12:51:36;;;;;;;31.70;12.75;;;;;;;;;;5036853;28;20068;-73
2022/12/23 12:54:15;;;;;;;29.73;13.85;;;;;;;;;;5035544;28;20159;-74
2022/12/23 12:56:57;;;;;;;28.85;12.75;;;;;;;;;;5033632;28;20122;-74
2022/12/23 12:59:34;;;;;;;36.63;14.35;;;;;;;;;;5018587;28;20480;-73
2022/12/23 13:02:09;;;;;;;34.35;14.63;;;;;;;;;;5038633;28;20049;-74
2022/12/23 13:04:54;;;;;;;34.83;14.52;;;;;;;;;;5041619;28;20048;-74
2022/12/23 13:07:42;;;;;;;39.85;14.27;;;;;;;;;;5039282;28;20520;-74
2022/12/23 13:10:08;;;;;;;;;;;;;;;;;;5032421;28;20064;-73
2022/12/23 13:12:53;;;;;;;42.53;15.95;;;;;;;;;;5056243;28;20383;-72
2022/12/23 13:15:23;;;;;;;37.38;15.07;;;;;;;;;;5042382;28;20091;-73
2022/12/23 13:18:07;;;;;;;35.20;15.98;;;;;;;;;;5056010;28;20131;-75
2022/12/23 13:20:42;;;;;;;41.25;17.27;;;;;;;;;;5054607;28;20040;-74
2022/12/23 13:23:20;;;;;;;47.72;17.70;;;;;;;;;;5061291;28;20088;-73
2022/12/23 13:25:51;;;;;;;50.60;17.38;;;;;;;;;;5044868;28;21188;-73
2022/12/23 13:28:17;;;;;;;51.78;19.38;;;;;;;;;;5058542;28;20499;-75
2022/12/23 13:30:47;;;;;;;59.72;19.17;;;;;;;;;;5057933;28;20055;-73
2022/12/23 13:33:22;;;;;;;58.47;19.48;;;;;;;;;;5058053;28;20521;-73
2022/12/23 13:35:57;;;;;;;60.83;20.17;;;;;;;;;;5059078;28;20060;-73
2022/12/23 13:38:38;;;;;;;61.78;19.95;;;;;;;;;;5057323;28;20075;-74
2022/12/23 13:41:23;;;;;;;67.32;19.20;;;;;;;;;;5058102;28;20048;-75
2022/12/23 13:43:54;;;;;;;68.90;20.63;;;;;;;;;;5056142;28;20447;-74
2022/12/23 13:46:40;;;;;;;62.00;20.00;;;;;;;;;;5040351;28;20048;-73
2022/12/23 13:49:11;;;;;;;52.38;18.38;;;;;;;;;;5062330;28;20484;-73
2022/12/23 13:51:49;;;;;;;50.30;18.92;;;;;;;;;;5055200;28;20781;-74
2022/12/23 13:54:27;;;;;;;55.53;20.23;;;;;;;;;;5055301;28;20044;-73
2022/12/23 13:57:00;;;;;;;58.43;20.17;;;;;;;;;;5055092;28;20098;-73
2022/12/23 13:59:36;;;;;;;68.70;21.17;;;;;;;;;;5057792;28;20424;-72
2022/12/23 14:02:02;;;;;;;60.33;20.30;;;;;;;;;;5054740;28;20057;-73
2022/12/23 14:04:30;;;;;;;58.85;20.23;;;;;;;;;;5054494;28;20127;-72
2022/12/23 14:07:01;;;;;;;64.88;21.45;;;;;;;;;;5042503;28;20051;-72
2022/12/23 14:09:29;;;;;;;63.15;20.20;;;;;;;;;;5052274;28;20041;-74
2022/12/23 14:11:56;;;;;;;65.60;19.95;;;;;;;;;;5044985;28;20056;-75
2022/12/23 14:14:23;;;;;;;66.75;21.27;;;;;;;;;;5054560;28;20045;-74
2022/12/23 14:17:15;;;;;;;69.55;21.38;;;;;;;;;;5058450;28;20094;-71
2022/12/23 14:19:50;;;;;;;80.18;22.75;;;;;;;;;;5052357;28;20060;-71
2022/12/23 14:22:36;;;;;;;84.25;22.90;;;;;;;;;;5053963;28;20054;-72
2022/12/23 14:25:22;;;;;;;72.07;22.40;;;;;;;;;;5055590;28;20048;-71
2022/12/23 14:28:07;;;;;;;84.45;23.83;;;;;;;;;;5056845;28;20403;-72
2022/12/23 14:30:34;;;;;;;78.90;23.05;;;;;;;;;;5056372;28;20057;-71
2022/12/23 14:33:24;;;;;;;82.03;24.23;;;;;;;;;;5055457;28;20050;-75
2022/12/23 14:35:51;;;;;;;81.70;23.63;;;;;;;;;;5048909;28;20063;-72
2022/12/23 14:38:23;;;;;;;92.25;25.23;;;;;;;;;;5059029;28;20052;-73
2022/12/23 14:40:59;;;;;;;83.97;25.30;;;;;;;;;;5057793;28;20049;-73
2022/12/23 14:43:49;;;;;;;93.28;25.70;;;;;;;;;;5050806;28;20037;-72
2022/12/23 14:46:34;;;;;;;90.00;24.67;;;;;;;;;;5066540;28;20118;-71
2022/12/23 14:49:00;;;;;;;92.20;25.20;;;;;;;;;;5054826;28;20076;-73
2022/12/23 14:51:33;;;;;;;92.35;25.48;;;;;;;;;;5054119;28;20120;-72
2022/12/23 14:53:59;;;;;;;104.28;27.13;;;;;;;;;;5058588;28;20036;-73